sensor_id;sensor_type;location;lat;lon;timestamp;pressure;altitude;pressure_sealevel;temperature;humidity
11077;BME280;5591;42.626;23.380;2022-09-03T11:02:34;94357.94;;;25.08;100.00
11077;BME280;5591;42.626;23.380;2022-09-03T11:05:06;94352.41;;;24.05;100.00
11077;BME280;5591;42.626;23.380;2022-09-03T11:07:37;94351.84;;;24.08;100.00
11077;BME280;5591;42.626;23.380;2022-09-03T11:10:11;94349.16;;;24.48;100.00
11077;BME280;5591;42.626;23.380;2022-09-03T11:12:42;94347.56;;;24.47;100.00
11077;BME280;5591;42.626;23.380;2022-09-03T11:15:15;94349.97;;;24.68;100.00
11077;BME280;5591;42.626;23.380;2022-09-03T11:17:49;94351.03;;;24.82;100.00
11077;BME280;5591;42.626;23.380;2022-09-03T11:20:19;94356.69;;;24.46;100.00
11077;BME280;5591;42.626;23.380;2022-09-03T11:22:49;94384.06;;;24.13;100.00
11077;BME280;5591;42.626;23.380;2022-09-03T11:25:19;94360.47;;;24.45;100.00
11077;BME280;5591;42.626;23.380;2022-09-03T11:27:55;94352.41;;;24.70;100.00
11077;BME280;5591;42.626;23.380;2022-09-03T11:30:35;94341.25;;;25.26;100.00
11077;BME280;5591;42.626;23.380;2022-09-03T11:33:08;94343.31;;;25.39;100.00
11077;BME280;5591;42.626;23.380;2022-09-03T11:35:40;94342.94;;;26.09;100.00
11077;BME280;5591;42.626;23.380;2022-09-03T11:38:21;94343.03;;;26.66;92.93
11077;BME280;5591;42.626;23.380;2022-09-03T11:40:59;94344.47;;;26.20;90.81
11077;BME280;5591;42.626;23.380;2022-09-03T11:43:28;94346.41;;;27.05;87.82
11077;BME280;5591;42.626;23.380;2022-09-03T11:46:07;94336.75;;;28.25;73.42
11077;BME280;5591;42.626;23.380;2022-09-03T11:48:41;94353.31;;;25.82;94.02
11077;BME280;5591;42.626;23.380;2022-09-03T11:51:29;94352.44;;;25.48;96.17
11077;BME280;5591;42.626;23.380;2022-09-03T11:53:58;94350.06;;;26.62;91.40
11077;BME280;5591;42.626;23.380;2022-09-03T11:56:26;94357.25;;;25.99;92.40
11077;BME280;5591;42.626;23.380;2022-09-03T11:59:14;94356.59;;;26.56;89.79
11077;BME280;5591;42.626;23.380;2022-09-03T12:01:45;94296.78;;;27.29;82.96
11077;BME280;5591;42.626;23.380;2022-09-03T12:04:20;94341.00;;;27.94;77.33
11077;BME280;5591;42.626;23.380;2022-09-03T12:07:03;94344.03;;;28.88;71.91
11077;BME280;5591;42.626;23.380;2022-09-03T12:10:11;94341.84;;;28.08;75.63
11077;BME280;5591;42.626;23.380;2022-09-03T12:13:08;94332.16;;;27.46;78.54
11077;BME280;5591;42.626;23.380;2022-09-03T12:16:02;94332.00;;;29.26;66.57
11077;BME280;5591;42.626;23.380;2022-09-03T12:18:34;94333.09;;;29.65;60.94
11077;BME280;5591;42.626;23.380;2022-09-03T12:21:05;94334.91;;;28.20;73.42
11077;BME280;5591;42.626;23.380;2022-09-03T12:23:34;94324.38;;;28.56;68.88
11077;BME280;5591;42.626;23.380;2022-09-03T12:26:04;94295.47;;;27.69;72.23
11077;BME280;5591;42.626;23.380;2022-09-03T12:28:34;94318.00;;;28.33;69.29
11077;BME280;5591;42.626;23.380;2022-09-03T12:31:07;94317.41;;;28.18;72.14
11077;BME280;5591;42.626;23.380;2022-09-03T12:33:47;94308.38;;;28.59;66.43
11077;BME280;5591;42.626;23.380;2022-09-03T12:36:17;94324.06;;;29.02;64.68
11077;BME280;5591;42.626;23.380;2022-09-03T12:38:44;94318.91;;;28.42;70.22
11077;BME280;5591;42.626;23.380;2022-09-03T12:41:23;94335.56;;;28.63;65.36
11077;BME280;5591;42.626;23.380;2022-09-03T12:43:52;94327.53;;;28.44;67.99
11077;BME280;5591;42.626;23.380;2022-09-03T12:46:24;94323.50;;;30.08;58.21
11077;BME280;5591;42.626;23.380;2022-09-03T12:48:53;94322.66;;;30.65;53.40
11077;BME280;5591;42.626;23.380;2022-09-03T12:51:22;94322.22;;;31.33;49.67
11077;BME280;5591;42.626;23.380;2022-09-03T12:53:50;94311.63;;;30.18;53.38
11077;BME280;5591;42.626;23.380;2022-09-03T12:56:18;94304.13;;;28.21;68.29
11077;BME280;5591;42.626;23.380;2022-09-03T12:58:50;94322.56;;;29.10;61.20
11077;BME280;5591;42.626;23.380;2022-09-03T13:01:23;94309.56;;;29.66;55.22
11077;BME280;5591;42.626;23.380;2022-09-03T13:03:54;94306.84;;;29.39;58.55
11077;BME280;5591;42.626;23.380;2022-09-03T13:06:25;94304.75;;;29.98;57.44
11077;BME280;5591;42.626;23.380;2022-09-03T13:08:56;94304.66;;;29.14;60.87
11077;BME280;5591;42.626;23.380;2022-09-03T13:11:24;94290.31;;;29.27;61.48
11077;BME280;5591;42.626;23.380;2022-09-03T13:13:53;94301.84;;;29.32;60.23
11077;BME280;5591;42.626;23.380;2022-09-03T13:19:29;94285.47;;;29.78;56.28
11077;BME280;5591;42.626;23.380;2022-09-03T13:22:07;94274.97;;;30.42;54.11
11077;BME280;5591;42.626;23.380;2022-09-03T13:27:35;94282.66;;;30.71;48.54
11077;BME280;5591;42.626;23.380;2022-09-03T13:30:07;94290.81;;;29.91;54.14
11077;BME280;5591;42.626;23.380;2022-09-03T13:32:41;94278.38;;;29.90;55.12
11077;BME280;5591;42.626;23.380;2022-09-03T13:35:16;94250.19;;;30.05;51.83
11077;BME280;5591;42.626;23.380;2022-09-03T13:37:54;94285.44;;;31.57;48.01
11077;BME280;5591;42.626;23.380;2022-09-03T13:40:26;94263.16;;;31.21;48.44
11077;BME280;5591;42.626;23.380;2022-09-03T13:43:03;94289.72;;;30.72;50.67
11077;BME280;5591;42.626;23.380;2022-09-03T13:45:36;94282.47;;;30.01;53.82
11077;BME280;5591;42.626;23.380;2022-09-03T13:48:09;94278.28;;;31.14;48.42
11077;BME280;5591;42.626;23.380;2022-09-03T13:51:02;94275.75;;;32.15;44.60
11077;BME280;5591;42.626;23.380;2022-09-03T13:53:42;94282.25;;;30.77;51.71
11077;BME280;5591;42.626;23.380;2022-09-03T13:56:18;94271.84;;;32.84;44.95
11077;BME280;5591;42.626;23.380;2022-09-03T13:58:49;94275.94;;;31.29;46.45
11077;BME280;5591;42.626;23.380;2022-09-03T14:01:25;94266.97;;;32.10;44.41
11077;BME280;5591;42.626;23.380;2022-09-03T14:03:55;94269.56;;;30.95;44.91
11077;BME280;5591;42.626;23.380;2022-09-03T14:06:33;94281.28;;;30.82;46.51
11077;BME280;5591;42.626;23.380;2022-09-03T14:09:13;94282.16;;;30.60;48.31
11077;BME280;5591;42.626;23.380;2022-09-03T14:11:51;94283.81;;;29.28;54.74
11077;BME280;5591;42.626;23.380;2022-09-03T14:14:30;94288.72;;;30.24;49.91
11077;BME280;5591;42.626;23.380;2022-09-03T14:17:08;94286.16;;;31.96;45.02
11077;BME280;5591;42.626;23.380;2022-09-03T14:19:42;94286.31;;;32.51;43.46
11077;BME280;5591;42.626;23.380;2022-09-03T14:22:15;94296.59;;;30.78;46.09
11077;BME280;5591;42.626;23.380;2022-09-03T14:24:50;94294.31;;;32.05;43.28
11077;BME280;5591;42.626;23.380;2022-09-03T14:27:23;94296.06;;;30.67;46.12
11077;BME280;5591;42.626;23.380;2022-09-03T14:29:53;94275.50;;;31.05;46.35
11077;BME280;5591;42.626;23.380;2022-09-03T14:32:34;94290.75;;;31.15;45.96
11077;BME280;5591;42.626;23.380;2022-09-03T14:35:33;94289.84;;;32.09;42.71
11077;BME280;5591;42.626;23.380;2022-09-03T14:38:24;94301.69;;;31.10;45.20
11077;BME280;5591;42.626;23.380;2022-09-03T14:41:04;94293.41;;;31.53;44.50
11077;BME280;5591;42.626;23.380;2022-09-03T14:44:01;94284.22;;;31.24;44.18
11077;BME280;5591;42.626;23.380;2022-09-03T14:46:45;94297.72;;;29.62;51.64
11077;BME280;5591;42.626;23.380;2022-09-03T14:49:45;94299.75;;;26.57;80.10
11077;BME280;5591;42.626;23.380;2022-09-03T14:52:28;94297.19;;;26.09;84.75
11077;BME280;5591;42.626;23.380;2022-09-03T14:55:14;94303.19;;;26.01;86.49
11077;BME280;5591;42.626;23.380;2022-09-03T15:00:51;94299.47;;;25.92;86.94
11077;BME280;5591;42.626;23.380;2022-09-03T15:03:37;94306.69;;;25.53;90.12
11077;BME280;5591;42.626;23.380;2022-09-03T15:06:24;94295.81;;;25.73;89.81
11077;BME280;5591;42.626;23.380;2022-09-03T15:09:14;94302.31;;;25.67;90.17
11077;BME280;5591;42.626;23.380;2022-09-03T15:11:48;94299.22;;;25.88;87.58
11077;BME280;5591;42.626;23.380;2022-09-03T15:14:25;94298.03;;;26.66;83.00
11077;BME280;5591;42.626;23.380;2022-09-03T15:17:02;94300.63;;;28.39;67.79
11077;BME280;5591;42.626;23.380;2022-09-03T15:20:10;94294.47;;;28.15;68.60
11077;BME280;5591;42.626;23.380;2022-09-03T15:23:19;94293.16;;;27.81;72.92
11077;BME280;5591;42.626;23.380;2022-09-03T15:28:57;94291.63;;;28.25;64.33
11077;BME280;5591;42.626;23.380;2022-09-03T15:31:38;94304.06;;;30.28;50.86
11077;BME280;5591;42.626;23.380;2022-09-03T15:34:21;94308.56;;;29.08;61.99
11077;BME280;5591;42.626;23.380;2022-09-03T15:36:51;94298.22;;;30.35;63.32
11077;BME280;5591;42.626;23.380;2022-09-03T15:39:22;94301.03;;;29.59;74.46
11077;BME280;5591;42.626;23.380;2022-09-03T15:41:52;94306.13;;;31.36;62.46
11077;BME280;5591;42.626;23.380;2022-09-03T15:44:23;94311.06;;;31.73;56.08
11077;BME280;5591;42.626;23.380;2022-09-03T15:46:56;94312.97;;;31.34;60.63
11077;BME280;5591;42.626;23.380;2022-09-03T15:49:35;94310.94;;;32.37;53.70
11077;BME280;5591;42.626;23.380;2022-09-03T15:52:24;94314.13;;;32.14;53.94
11077;BME280;5591;42.626;23.380;2022-09-03T15:54:57;94311.41;;;32.14;53.74
11077;BME280;5591;42.626;23.380;2022-09-03T15:57:30;94332.22;;;30.85;64.28
11077;BME280;5591;42.626;23.380;2022-09-03T16:00:01;94307.25;;;30.74;63.06
11077;BME280;5591;42.626;23.380;2022-09-03T16:02:33;94319.56;;;32.05;55.24
11077;BME280;5591;42.626;23.380;2022-09-03T16:05:10;94324.31;;;30.09;69.55
11077;BME280;5591;42.626;23.380;2022-09-03T16:08:04;94315.81;;;28.80;80.72
11077;BME280;5591;42.626;23.380;2022-09-03T16:10:41;94323.09;;;27.61;90.77
11077;BME280;5591;42.626;23.380;2022-09-03T16:13:27;94330.38;;;26.33;100.00
11077;BME280;5591;42.626;23.380;2022-09-03T16:16:01;94332.03;;;25.90;100.00
11077;BME280;5591;42.626;23.380;2022-09-03T16:18:34;94334.94;;;26.32;100.00
11077;BME280;5591;42.626;23.380;2022-09-03T16:21:08;94347.38;;;26.62;100.00
11077;BME280;5591;42.626;23.380;2022-09-03T16:23:40;94354.28;;;26.96;98.61
11077;BME280;5591;42.626;23.380;2022-09-03T16:26:14;94357.53;;;26.36;100.00
11077;BME280;5591;42.626;23.380;2022-09-03T16:28:47;94355.38;;;24.53;100.00
11077;BME280;5591;42.626;23.380;2022-09-03T16:31:25;94353.19;;;24.25;100.00
11077;BME280;5591;42.626;23.380;2022-09-03T16:34:04;94363.16;;;24.35;100.00
11077;BME280;5591;42.626;23.380;2022-09-03T16:36:41;94304.81;;;23.35;100.00
11077;BME280;5591;42.626;23.380;2022-09-03T16:39:21;94375.63;;;23.59;100.00
11077;BME280;5591;42.626;23.380;2022-09-03T16:41:57;94383.50;;;22.73;100.00
11077;BME280;5591;42.626;23.380;2022-09-03T16:44:38;94379.25;;;22.41;100.00
11077;BME280;5591;42.626;23.380;2022-09-03T16:47:15;94382.06;;;22.29;100.00
11077;BME280;5591;42.626;23.380;2022-09-03T16:49:53;94374.78;;;22.51;100.00
11077;BME280;5591;42.626;23.380;2022-09-03T16:52:30;94370.31;;;22.62;100.00
11077;BME280;5591;42.626;23.380;2022-09-03T16:55:11;94383.59;;;22.47;100.00
11077;BME280;5591;42.626;23.380;2022-09-03T16:57:55;94378.88;;;21.96;100.00
11077;BME280;5591;42.626;23.380;2022-09-03T17:00:27;94371.72;;;22.06;100.00
11077;BME280;5591;42.626;23.380;2022-09-03T17:03:38;94374.81;;;22.25;100.00
11077;BME280;5591;42.626;23.380;2022-09-03T17:06:19;94384.16;;;21.91;100.00
11077;BME280;5591;42.626;23.380;2022-09-03T17:08:59;94385.63;;;21.77;100.00
11077;BME280;5591;42.626;23.380;2022-09-03T17:11:55;94396.41;;;21.87;100.00
11077;BME280;5591;42.626;23.380;2022-09-03T17:14:43;94399.19;;;21.97;100.00
11077;BME280;5591;42.626;23.380;2022-09-03T17:17:20;94401.78;;;22.18;100.00
11077;BME280;5591;42.626;23.380;2022-09-03T17:19:56;94404.72;;;22.17;100.00
11077;BME280;5591;42.626;23.380;2022-09-03T17:22:35;94412.56;;;22.28;100.00
11077;BME280;5591;42.626;23.380;2022-09-03T17:25:16;94409.31;;;22.21;100.00
11077;BME280;5591;42.626;23.380;2022-09-03T17:27:48;94413.56;;;21.91;100.00
11077;BME280;5591;42.626;23.380;2022-09-03T17:30:24;94413.59;;;21.69;100.00
11077;BME280;5591;42.626;23.380;2022-09-03T17:33:07;94408.44;;;21.41;100.00
11077;BME280;5591;42.626;23.380;2022-09-03T17:35:56;94428.97;;;21.14;100.00
11077;BME280;5591;42.626;23.380;2022-09-03T17:38:43;94430.88;;;21.19;100.00
11077;BME280;5591;42.626;23.380;2022-09-03T17:41:21;94442.25;;;21.31;100.00
11077;BME280;5591;42.626;23.380;2022-09-03T17:43:56;94437.38;;;21.06;100.00
11077;BME280;5591;42.626;23.380;2022-09-03T17:46:32;94437.28;;;20.63;100.00
11077;BME280;5591;42.626;23.380;2022-09-03T17:49:06;94445.84;;;20.33;100.00
11077;BME280;5591;42.626;23.380;2022-09-03T17:51:38;94459.06;;;20.27;100.00
11077;BME280;5591;42.626;23.380;2022-09-03T17:54:14;94493.13;;;20.09;100.00
11077;BME280;5591;42.626;23.380;2022-09-03T17:56:47;94452.94;;;20.11;100.00
11077;BME280;5591;42.626;23.380;2022-09-03T17:59:20;94452.59;;;20.07;100.00
11077;BME280;5591;42.626;23.380;2022-09-03T18:01:54;94458.41;;;20.04;100.00
11077;BME280;5591;42.626;23.380;2022-09-03T18:04:33;94454.13;;;20.03;100.00
11077;BME280;5591;42.626;23.380;2022-09-03T18:07:10;94469.25;;;20.14;100.00
11077;BME280;5591;42.626;23.380;2022-09-03T18:09:47;94454.31;;;19.85;100.00
11077;BME280;5591;42.626;23.380;2022-09-03T18:12:27;94461.34;;;19.91;100.00
11077;BME280;5591;42.626;23.380;2022-09-03T18:15:03;94381.19;;;19.48;100.00
11077;BME280;5591;42.626;23.380;2022-09-03T18:17:36;94480.03;;;19.80;100.00
11077;BME280;5591;42.626;23.380;2022-09-03T18:20:08;94486.75;;;19.82;100.00
11077;BME280;5591;42.626;23.380;2022-09-03T18:22:58;94483.81;;;19.95;100.00
11077;BME280;5591;42.626;23.380;2022-09-03T18:25:49;94472.88;;;19.80;100.00
11077;BME280;5591;42.626;23.380;2022-09-03T18:28:39;94484.84;;;19.66;100.00
11077;BME280;5591;42.626;23.380;2022-09-03T18:31:25;94487.28;;;19.68;100.00
11077;BME280;5591;42.626;23.380;2022-09-03T18:34:09;94476.28;;;19.64;100.00
11077;BME280;5591;42.626;23.380;2022-09-03T18:36:57;94492.59;;;19.68;100.00
11077;BME280;5591;42.626;23.380;2022-09-03T18:39:43;94489.69;;;19.69;100.00
11077;BME280;5591;42.626;23.380;2022-09-03T18:42:39;94492.75;;;19.61;100.00
11077;BME280;5591;42.626;23.380;2022-09-03T18:45:33;94492.06;;;19.54;100.00
11077;BME280;5591;42.626;23.380;2022-09-03T18:48:26;94495.19;;;19.51;100.00
11077;BME280;5591;42.626;23.380;2022-09-03T18:51:20;94405.38;;;18.96;100.00
11077;BME280;5591;42.626;23.380;2022-09-03T18:54:20;94465.38;;;19.15;100.00
11077;BME280;5591;42.626;23.380;2022-09-03T18:57:13;94502.06;;;19.24;100.00
11077;BME280;5591;42.626;23.380;2022-09-03T19:00:07;94477.75;;;19.32;100.00
11077;BME280;5591;42.626;23.380;2022-09-03T19:03:03;94493.94;;;19.54;100.00
11077;BME280;5591;42.626;23.380;2022-09-03T19:06:01;94490.66;;;19.52;100.00
11077;BME280;5591;42.626;23.380;2022-09-03T19:08:52;94488.81;;;19.52;100.00
11077;BME280;5591;42.626;23.380;2022-09-03T19:11:46;94497.88;;;19.51;100.00
11077;BME280;5591;42.626;23.380;2022-09-03T19:14:38;94490.00;;;19.45;100.00
11077;BME280;5591;42.626;23.380;2022-09-03T19:17:34;94489.03;;;19.23;100.00
11077;BME280;5591;42.626;23.380;2022-09-03T19:20:27;94507.53;;;19.29;100.00
11077;BME280;5591;42.626;23.380;2022-09-03T19:23:12;94511.09;;;19.23;100.00
11077;BME280;5591;42.626;23.380;2022-09-03T19:26:03;94518.16;;;19.18;100.00
11077;BME280;5591;42.626;23.380;2022-09-03T19:28:53;94526.84;;;19.25;100.00
11077;BME280;5591;42.626;23.380;2022-09-03T19:31:43;94530.88;;;19.04;100.00
11077;BME280;5591;42.626;23.380;2022-09-03T19:34:45;94528.47;;;19.03;100.00
11077;BME280;5591;42.626;23.380;2022-09-03T19:37:40;94532.59;;;18.99;100.00
11077;BME280;5591;42.626;23.380;2022-09-03T19:40:40;94525.09;;;18.96;100.00
11077;BME280;5591;42.626;23.380;2022-09-03T19:43:34;94534.13;;;18.95;100.00
11077;BME280;5591;42.626;23.380;2022-09-03T19:46:29;94498.72;;;18.71;100.00
11077;BME280;5591;42.626;23.380;2022-09-03T19:49:22;94531.00;;;18.86;100.00
11077;BME280;5591;42.626;23.380;2022-09-03T19:52:21;94535.38;;;18.69;100.00
11077;BME280;5591;42.626;23.380;2022-09-03T19:55:20;94534.81;;;18.67;100.00
11077;BME280;5591;42.626;23.380;2022-09-03T19:58:07;94540.91;;;18.68;100.00
11077;BME280;5591;42.626;23.380;2022-09-03T20:00:53;94534.56;;;18.57;100.00
11077;BME280;5591;42.626;23.380;2022-09-03T20:03:37;94543.19;;;18.41;100.00
11077;BME280;5591;42.626;23.380;2022-09-03T20:06:21;94542.13;;;18.31;100.00
11077;BME280;5591;42.626;23.380;2022-09-03T20:09:08;94544.38;;;18.27;100.00
11077;BME280;5591;42.626;23.380;2022-09-03T20:11:56;94547.50;;;18.24;100.00
11077;BME280;5591;42.626;23.380;2022-09-03T20:14:23;94545.44;;;18.26;100.00
11077;BME280;5591;42.626;23.380;2022-09-03T20:17:00;94539.63;;;18.18;100.00
11077;BME280;5591;42.626;23.380;2022-09-03T20:19:40;94531.41;;;18.19;100.00
11077;BME280;5591;42.626;23.380;2022-09-03T20:22:17;94534.06;;;18.19;100.00
11077;BME280;5591;42.626;23.380;2022-09-03T20:25:01;94540.06;;;18.15;100.00
11077;BME280;5591;42.626;23.380;2022-09-03T20:27:42;94540.78;;;18.22;100.00
11077;BME280;5591;42.626;23.380;2022-09-03T20:30:13;94485.25;;;17.91;100.00
11077;BME280;5591;42.626;23.380;2022-09-03T20:32:59;94538.13;;;18.22;100.00
11077;BME280;5591;42.626;23.380;2022-09-03T20:35:36;94547.72;;;18.11;100.00
11077;BME280;5591;42.626;23.380;2022-09-03T20:38:20;94543.84;;;18.07;100.00
11077;BME280;5591;42.626;23.380;2022-09-03T20:40:59;94553.41;;;17.97;100.00
11077;BME280;5591;42.626;23.380;2022-09-03T20:43:40;94546.25;;;17.97;100.00
11077;BME280;5591;42.626;23.380;2022-09-03T20:46:32;94552.31;;;17.86;100.00
11077;BME280;5591;42.626;23.380;2022-09-03T20:49:09;94523.75;;;17.70;100.00
11077;BME280;5591;42.626;23.380;2022-09-03T20:51:45;94559.63;;;17.91;100.00
11077;BME280;5591;42.626;23.380;2022-09-03T20:54:20;94524.25;;;17.61;100.00
11077;BME280;5591;42.626;23.380;2022-09-03T20:56:59;94567.16;;;17.94;100.00
11077;BME280;5591;42.626;23.380;2022-09-03T20:59:38;94562.34;;;18.02;100.00
11077;BME280;5591;42.626;23.380;2022-09-03T21:02:18;94556.66;;;17.99;100.00
11077;BME280;5591;42.626;23.380;2022-09-03T21:05:00;94556.56;;;18.05;100.00
11077;BME280;5591;42.626;23.380;2022-09-03T21:07:34;94563.59;;;18.00;100.00
11077;BME280;5591;42.626;23.380;2022-09-03T21:10:13;94562.69;;;18.06;100.00
11077;BME280;5591;42.626;23.380;2022-09-03T21:12:51;94527.63;;;17.86;100.00
11077;BME280;5591;42.626;23.380;2022-09-03T21:15:27;94550.38;;;18.11;100.00
11077;BME280;5591;42.626;23.380;2022-09-03T21:18:05;94549.31;;;18.12;100.00
11077;BME280;5591;42.626;23.380;2022-09-03T21:20:43;94539.38;;;18.08;100.00
11077;BME280;5591;42.626;23.380;2022-09-03T21:23:17;94544.00;;;18.12;100.00
11077;BME280;5591;42.626;23.380;2022-09-03T21:25:51;94545.06;;;18.11;100.00
11077;BME280;5591;42.626;23.380;2022-09-03T21:28:24;94490.47;;;17.68;100.00
11077;BME280;5591;42.626;23.380;2022-09-03T21:30:56;94550.09;;;18.01;100.00
11077;BME280;5591;42.626;23.380;2022-09-03T21:33:27;94523.94;;;17.87;100.00
11077;BME280;5591;42.626;23.380;2022-09-03T21:36:01;94550.09;;;18.01;100.00
11077;BME280;5591;42.626;23.380;2022-09-03T21:38:32;94540.63;;;17.76;100.00
11077;BME280;5591;42.626;23.380;2022-09-03T21:41:05;94545.63;;;17.84;100.00
11077;BME280;5591;42.626;23.380;2022-09-03T21:43:43;94537.06;;;17.82;100.00
11077;BME280;5591;42.626;23.380;2022-09-03T21:46:14;94517.13;;;17.62;100.00
11077;BME280;5591;42.626;23.380;2022-09-03T21:48:47;94539.38;;;17.78;100.00
11077;BME280;5591;42.626;23.380;2022-09-03T21:51:20;94495.41;;;17.53;100.00
11077;BME280;5591;42.626;23.380;2022-09-03T21:53:52;94546.59;;;17.71;100.00
11077;BME280;5591;42.626;23.380;2022-09-03T21:59:41;94539.22;;;17.73;100.00
11077;BME280;5591;42.626;23.380;2022-09-03T22:02:15;94546.03;;;17.69;100.00
11077;BME280;5591;42.626;23.380;2022-09-03T22:04:44;94549.34;;;17.65;100.00
11077;BME280;5591;42.626;23.380;2022-09-03T22:07:18;94548.97;;;17.44;100.00
11077;BME280;5591;42.626;23.380;2022-09-03T22:09:53;94544.94;;;17.41;100.00
11077;BME280;5591;42.626;23.380;2022-09-03T22:12:28;94543.16;;;17.35;100.00
11077;BME280;5591;42.626;23.380;2022-09-03T22:15:00;94552.41;;;17.26;100.00
11077;BME280;5591;42.626;23.380;2022-09-03T22:17:39;94549.75;;;17.26;100.00
11077;BME280;5591;42.626;23.380;2022-09-03T22:20:12;94559.13;;;17.29;100.00
11077;BME280;5591;42.626;23.380;2022-09-03T22:22:42;94523.28;;;17.02;100.00
11077;BME280;5591;42.626;23.380;2022-09-03T22:25:15;94557.72;;;17.26;100.00
11077;BME280;5591;42.626;23.380;2022-09-03T22:27:49;94560.75;;;17.30;100.00
11077;BME280;5591;42.626;23.380;2022-09-03T22:30:29;94556.47;;;17.29;100.00
11077;BME280;5591;42.626;23.380;2022-09-03T22:33:05;94555.66;;;17.28;100.00
11077;BME280;5591;42.626;23.380;2022-09-03T22:35:56;94560.88;;;17.35;100.00
11077;BME280;5591;42.626;23.380;2022-09-03T22:38:52;94533.09;;;17.19;100.00
11077;BME280;5591;42.626;23.380;2022-09-03T22:41:38;94558.09;;;17.30;100.00
11077;BME280;5591;42.626;23.380;2022-09-03T22:44:15;94565.81;;;17.13;100.00
11077;BME280;5591;42.626;23.380;2022-09-03T22:46:53;94566.16;;;16.99;100.00
11077;BME280;5591;42.626;23.380;2022-09-03T22:49:33;94564.44;;;16.86;100.00
11077;BME280;5591;42.626;23.380;2022-09-03T22:52:23;94549.03;;;16.77;100.00
11077;BME280;5591;42.626;23.380;2022-09-03T22:55:04;94556.72;;;16.85;100.00
11077;BME280;5591;42.626;23.380;2022-09-03T22:57:36;94559.97;;;16.87;100.00
11077;BME280;5591;42.626;23.380;2022-09-03T23:00:06;94524.16;;;16.53;100.00
11077;BME280;5591;42.626;23.380;2022-09-03T23:02:36;94503.28;;;16.39;100.00
11077;BME280;5591;42.626;23.380;2022-09-03T23:05:07;94556.53;;;16.80;100.00
11077;BME280;5591;42.626;23.380;2022-09-03T23:07:43;94545.81;;;16.75;100.00
11077;BME280;5591;42.626;23.380;2022-09-03T23:10:19;94531.56;;;16.69;100.00
11077;BME280;5591;42.626;23.380;2022-09-03T23:12:52;94559.91;;;16.69;100.00
11077;BME280;5591;42.626;23.380;2022-09-03T23:15:26;94559.97;;;16.62;100.00
11077;BME280;5591;42.626;23.380;2022-09-03T23:18:03;94560.78;;;16.63;100.00
11077;BME280;5591;42.626;23.380;2022-09-03T23:20:32;94562.63;;;16.62;100.00
11077;BME280;5591;42.626;23.380;2022-09-03T23:23:08;94555.69;;;16.61;100.00
11077;BME280;5591;42.626;23.380;2022-09-03T23:25:40;94562.03;;;16.60;100.00
11077;BME280;5591;42.626;23.380;2022-09-03T23:28:13;94568.31;;;16.66;100.00
11077;BME280;5591;42.626;23.380;2022-09-03T23:30:43;94573.34;;;16.74;100.00
11077;BME280;5591;42.626;23.380;2022-09-03T23:33:11;94563.25;;;16.82;100.00
11077;BME280;5591;42.626;23.380;2022-09-03T23:35:46;94563.06;;;16.84;100.00
11077;BME280;5591;42.626;23.380;2022-09-03T23:38:19;94568.13;;;16.85;100.00
11077;BME280;5591;42.626;23.380;2022-09-03T23:40:49;94563.06;;;16.84;100.00
11077;BME280;5591;42.626;23.380;2022-09-03T23:46:18;94572.75;;;16.72;100.00
11077;BME280;5591;42.626;23.380;2022-09-03T23:49:08;94586.91;;;16.59;100.00
11077;BME280;5591;42.626;23.380;2022-09-03T23:51:49;94573.13;;;16.44;100.00
11077;BME280;5591;42.626;23.380;2022-09-03T23:54:24;94576.88;;;16.37;100.00
11077;BME280;5591;42.626;23.380;2022-09-03T23:57:04;94581.53;;;16.41;100.00
11077;BME280;5591;42.626;23.380;2022-09-03T23:59:50;94586.22;;;16.39;100.00
